Time;durP1;ratioP1;P1;durP2;ratioP2;P2;SDS_P1;SDS_P2;PMS_P1;PMS_P2;Temp;Humidity;BMP_temperature;BMP_pressure;BME280_temperature;BME280_humidity;BME280_pressure;Samples;Min_cycle;Max_cycle;Signal;HPM_P1;HPM_P2
2023/12/26 00:02:08;;;;;;;35.95;21.27;;;;;;;;;;5011271;28;20026;-71
2023/12/26 00:04:34;;;;;;;36.28;19.67;;;;;;;;;;5016184;28;20018;-72
2023/12/26 00:07:00;;;;;;;33.78;20.15;;;;;;;;;;5030472;28;20406;-72
2023/12/26 00:09:26;;;;;;;27.48;16.40;;;;;;;;;;5025471;28;20021;-74
2023/12/26 00:11:53;;;;;;;31.13;17.35;;;;;;;;;;5037055;28;20025;-72
2023/12/26 00:14:19;;;;;;;28.23;17.27;;;;;;;;;;5030079;28;20123;-73
2023/12/26 00:16:45;;;;;;;29.77;15.75;;;;;;;;;;5029356;28;20030;-72
2023/12/26 00:19:11;;;;;;;25.65;15.20;;;;;;;;;;5015714;28;20486;-72
2023/12/26 00:21:38;;;;;;;26.13;14.45;;;;;;;;;;5020213;28;20022;-71
2023/12/26 00:24:04;;;;;;;22.77;13.25;;;;;;;;;;5017933;28;20136;-71
2023/12/26 00:26:30;;;;;;;25.02;12.48;;;;;;;;;;5014896;28;20030;-72
2023/12/26 00:28:56;;;;;;;20.63;12.00;;;;;;;;;;5017091;28;20109;-72
2023/12/26 00:31:22;;;;;;;17.95;11.27;;;;;;;;;;5020158;28;20060;-73
2023/12/26 00:33:48;;;;;;;21.77;10.95;;;;;;;;;;5015336;28;20033;-72
2023/12/26 00:36:18;;;;;;;16.73;10.10;;;;;;;;;;5027633;28;20026;-73
2023/12/26 00:38:47;;;;;;;17.65;9.55;;;;;;;;;;5018424;28;20053;-73
2023/12/26 00:41:16;;;;;;;14.88;8.70;;;;;;;;;;5010283;28;20487;-72
2023/12/26 00:43:42;;;;;;;16.00;9.02;;;;;;;;;;5016172;28;20022;-72
2023/12/26 00:46:08;;;;;;;16.20;8.63;;;;;;;;;;5011898;28;20034;-71
2023/12/26 00:48:36;;;;;;;15.07;8.55;;;;;;;;;;5009781;28;20657;-71
2023/12/26 00:51:03;;;;;;;15.52;7.88;;;;;;;;;;5016767;28;20474;-71
2023/12/26 00:53:29;;;;;;;12.75;6.95;;;;;;;;;;5014559;28;20033;-72
2023/12/26 00:55:55;;;;;;;13.48;6.75;;;;;;;;;;5017710;28;20109;-72
2023/12/26 00:58:21;;;;;;;13.30;6.40;;;;;;;;;;5016950;28;20068;-72
2023/12/26 01:00:47;;;;;;;12.77;6.18;;;;;;;;;;5038944;28;20615;-74
2023/12/26 01:03:15;;;;;;;12.23;5.78;;;;;;;;;;5015913;28;20085;-71
2023/12/26 01:05:41;;;;;;;10.57;5.85;;;;;;;;;;5019201;28;20022;-72
2023/12/26 01:08:09;;;;;;;8.75;5.13;;;;;;;;;;5029508;28;20105;-72
2023/12/26 01:10:35;;;;;;;8.70;4.95;;;;;;;;;;5042023;28;20493;-72
2023/12/26 01:13:01;;;;;;;11.40;5.35;;;;;;;;;;5013131;28;20025;-70
2023/12/26 01:15:27;;;;;;;7.97;4.80;;;;;;;;;;5020025;28;20166;-71
2023/12/26 01:17:53;;;;;;;6.40;4.05;;;;;;;;;;5019961;28;20021;-70
2023/12/26 01:20:19;;;;;;;7.72;4.38;;;;;;;;;;5012775;28;20022;-70
2023/12/26 01:22:45;;;;;;;7.78;4.10;;;;;;;;;;5012798;28;20045;-69
2023/12/26 01:25:11;;;;;;;6.45;3.80;;;;;;;;;;5012890;28;20021;-69
2023/12/26 01:27:37;;;;;;;6.97;3.55;;;;;;;;;;5019616;28;20121;-68
2023/12/26 01:30:03;;;;;;;6.00;3.95;;;;;;;;;;5013295;28;20073;-71
2023/12/26 01:32:29;;;;;;;6.20;3.10;;;;;;;;;;5027231;28;20022;-72
2023/12/26 01:34:55;;;;;;;5.80;3.50;;;;;;;;;;5013008;28;20044;-71
2023/12/26 01:37:21;;;;;;;4.85;2.83;;;;;;;;;;5016051;28;20030;-72
2023/12/26 01:39:47;;;;;;;6.57;3.13;;;;;;;;;;5017539;28;20053;-72
2023/12/26 01:42:13;;;;;;;4.00;2.63;;;;;;;;;;5019848;28;20095;-73
2023/12/26 01:44:39;;;;;;;5.57;2.70;;;;;;;;;;5019296;28;20493;-73
2023/12/26 01:47:05;;;;;;;5.88;3.08;;;;;;;;;;5015176;28;20037;-74
2023/12/26 01:49:31;;;;;;;3.65;1.90;;;;;;;;;;5013257;28;20407;-73
2023/12/26 01:51:58;;;;;;;4.78;2.38;;;;;;;;;;5013188;28;20034;-72
2023/12/26 01:54:30;;;;;;;4.28;2.45;;;;;;;;;;5013176;28;20036;-72
2023/12/26 01:56:56;;;;;;;4.47;2.22;;;;;;;;;;5027369;28;20108;-73
2023/12/26 01:59:22;;;;;;;9.85;2.30;;;;;;;;;;5015324;28;20018;-70
2023/12/26 02:01:48;;;;;;;5.35;2.10;;;;;;;;;;5023924;28;20049;-69
2023/12/26 02:04:14;;;;;;;4.53;2.22;;;;;;;;;;5012184;28;20055;-69
2023/12/26 02:06:41;;;;;;;4.30;1.75;;;;;;;;;;5017469;28;20040;-72
2023/12/26 02:09:08;;;;;;;2.50;1.63;;;;;;;;;;5013937;28;20026;-73
2023/12/26 02:11:34;;;;;;;2.53;1.35;;;;;;;;;;5023783;28;20018;-72
2023/12/26 02:14:00;;;;;;;2.60;1.10;;;;;;;;;;5036247;28;20505;-72
2023/12/26 02:16:27;;;;;;;4.32;1.40;;;;;;;;;;5022214;28;20025;-72
2023/12/26 02:18:55;;;;;;;3.05;1.17;;;;;;;;;;5014579;28;20022;-71
2023/12/26 02:21:21;;;;;;;3.90;1.20;;;;;;;;;;5014920;28;20468;-71
2023/12/26 02:23:53;;;;;;;3.67;1.10;;;;;;;;;;5017016;28;20093;-69
2023/12/26 02:26:20;;;;;;;1.75;0.93;;;;;;;;;;5035313;28;20513;-70
2023/12/26 02:28:46;;;;;;;1.88;1.10;;;;;;;;;;5011985;28;20204;-69
2023/12/26 02:31:12;;;;;;;4.32;1.33;;;;;;;;;;5026647;28;20022;-70
2023/12/26 02:33:38;;;;;;;2.50;1.00;;;;;;;;;;5033479;28;20033;-69
2023/12/26 02:36:05;;;;;;;5.90;0.95;;;;;;;;;;5011763;28;20029;-70
2023/12/26 02:38:31;;;;;;;1.55;0.77;;;;;;;;;;5011538;28;20097;-70
2023/12/26 02:40:57;;;;;;;2.50;1.25;;;;;;;;;;5011528;28;20690;-71
2023/12/26 02:43:23;;;;;;;4.22;1.17;;;;;;;;;;5011611;28;20024;-71
2023/12/26 02:45:49;;;;;;;1.02;0.63;;;;;;;;;;5019000;28;20426;-71
2023/12/26 02:48:19;;;;;;;3.05;0.85;;;;;;;;;;5013040;28;20030;-71
2023/12/26 02:50:45;;;;;;;1.00;0.88;;;;;;;;;;5018352;28;20029;-70
2023/12/26 02:53:11;;;;;;;1.05;0.80;;;;;;;;;;5019924;28;20071;-71
2023/12/26 02:55:38;;;;;;;6.82;0.50;;;;;;;;;;5016824;28;20099;-69
2023/12/26 02:58:04;;;;;;;1.13;0.60;;;;;;;;;;5014059;28;20037;-71
2023/12/26 03:00:31;;;;;;;0.90;0.63;;;;;;;;;;5034342;28;20041;-73
2023/12/26 03:02:57;;;;;;;3.85;1.00;;;;;;;;;;5019912;28;20022;-72
2023/12/26 03:05:23;;;;;;;2.47;0.70;;;;;;;;;;5022674;28;20024;-73
2023/12/26 03:07:49;;;;;;;1.58;0.68;;;;;;;;;;5031177;28;20112;-72
2023/12/26 03:10:16;;;;;;;1.30;0.63;;;;;;;;;;5013066;28;20022;-72
2023/12/26 03:12:42;;;;;;;0.80;0.47;;;;;;;;;;5022128;28;20018;-70
2023/12/26 03:15:08;;;;;;;2.28;0.70;;;;;;;;;;5019820;28;20438;-71
2023/12/26 03:17:34;;;;;;;0.98;0.73;;;;;;;;;;5024566;28;20022;-71
2023/12/26 03:20:00;;;;;;;3.45;0.95;;;;;;;;;;5010698;28;20018;-71
2023/12/26 03:22:26;;;;;;;0.85;0.40;;;;;;;;;;5019236;28;20032;-71
2023/12/26 03:24:52;;;;;;;0.77;0.32;;;;;;;;;;5017695;28;20030;-71
2023/12/26 03:27:18;;;;;;;5.18;0.80;;;;;;;;;;5009298;28;20033;-71
2023/12/26 03:29:44;;;;;;;1.35;0.50;;;;;;;;;;5010682;28;20034;-70
2023/12/26 03:32:10;;;;;;;0.80;0.50;;;;;;;;;;5010781;28;20022;-71
2023/12/26 03:34:39;;;;;;;0.60;0.40;;;;;;;;;;5011090;28;20440;-71
2023/12/26 03:37:06;;;;;;;0.43;0.35;;;;;;;;;;5010771;28;20149;-70
2023/12/26 03:39:32;;;;;;;4.18;0.40;;;;;;;;;;5011053;28;20049;-71
2023/12/26 03:41:58;;;;;;;0.70;0.38;;;;;;;;;;5034123;28;20410;-70
2023/12/26 03:44:24;;;;;;;1.42;0.30;;;;;;;;;;5010621;28;20022;-72
2023/12/26 03:46:51;;;;;;;1.00;0.47;;;;;;;;;;5034031;28;20483;-71
2023/12/26 03:49:17;;;;;;;1.40;0.50;;;;;;;;;;5010618;28;20096;-69
2023/12/26 03:51:44;;;;;;;0.40;0.30;;;;;;;;;;5032563;28;20784;-70
2023/12/26 03:54:10;;;;;;;1.17;0.40;;;;;;;;;;5018812;28;20041;-70
2023/12/26 03:56:36;;;;;;;1.50;0.43;;;;;;;;;;5010595;28;20022;-70
2023/12/26 03:59:02;;;;;;;0.50;0.30;;;;;;;;;;5040128;28;20017;-73
2023/12/26 04:01:29;;;;;;;5.05;0.50;;;;;;;;;;5015011;28;20017;-73
2023/12/26 04:03:55;;;;;;;1.10;0.40;;;;;;;;;;5029021;28;20026;-72
2023/12/26 04:06:21;;;;;;;0.52;0.30;;;;;;;;;;5020633;28;20117;-72
2023/12/26 04:08:47;;;;;;;3.13;0.20;;;;;;;;;;5013980;28;20026;-76
2023/12/26 04:11:13;;;;;;;1.60;0.35;;;;;;;;;;5018550;28;20026;-72
2023/12/26 04:13:39;;;;;;;0.50;0.40;;;;;;;;;;5011801;28;20049;-72
2023/12/26 04:16:06;;;;;;;0.63;0.22;;;;;;;;;;5028154;28;20044;-71
2023/12/26 04:18:33;;;;;;;1.17;0.40;;;;;;;;;;5016253;28;20014;-70
2023/12/26 04:20:59;;;;;;;0.20;0.20;;;;;;;;;;5018560;28;20022;-71
2023/12/26 04:23:25;;;;;;;0.25;0.22;;;;;;;;;;5012540;28;20104;-70
2023/12/26 04:25:51;;;;;;;0.60;0.38;;;;;;;;;;5030438;28;20081;-70
2023/12/26 04:28:17;;;;;;;0.38;0.20;;;;;;;;;;5018408;28;20025;-70
2023/12/26 04:30:43;;;;;;;0.93;0.20;;;;;;;;;;5021030;28;20387;-70
2023/12/26 04:33:10;;;;;;;0.50;0.40;;;;;;;;;;5021691;28;20065;-70
2023/12/26 04:35:36;;;;;;;1.60;0.20;;;;;;;;;;5019410;28;20033;-69
2023/12/26 04:38:02;;;;;;;0.50;0.40;;;;;;;;;;5023115;28;20048;-70
2023/12/26 04:40:29;;;;;;;2.60;0.30;;;;;;;;;;5013854;28;20483;-70
2023/12/26 04:42:57;;;;;;;0.80;0.20;;;;;;;;;;5026895;28;20391;-69
2023/12/26 04:45:23;;;;;;;4.85;0.47;;;;;;;;;;5019703;28;20455;-72
2023/12/26 04:47:49;;;;;;;0.57;0.20;;;;;;;;;;5014587;28;20034;-70
2023/12/26 04:50:15;;;;;;;4.55;0.32;;;;;;;;;;5023932;28;20071;-71
2023/12/26 04:52:41;;;;;;;8.52;0.65;;;;;;;;;;5023583;28;20091;-71
2023/12/26 04:55:08;;;;;;;5.07;0.40;;;;;;;;;;5010123;28;20041;-70
2023/12/26 04:57:34;;;;;;;0.30;0.30;;;;;;;;;;5009620;28;20018;-70
2023/12/26 05:00:00;;;;;;;2.03;0.38;;;;;;;;;;5015679;28;20029;-69
2023/12/26 05:02:26;;;;;;;3.63;0.40;;;;;;;;;;5033348;28;20022;-70
2023/12/26 05:04:52;;;;;;;1.75;0.30;;;;;;;;;;5024602;28;20033;-72
2023/12/26 05:07:18;;;;;;;5.75;0.35;;;;;;;;;;5009346;28;20037;-72
2023/12/26 05:09:44;;;;;;;3.58;0.60;;;;;;;;;;5009392;28;20026;-70
2023/12/26 05:12:10;;;;;;;1.80;0.63;;;;;;;;;;5022656;28;20503;-69
2023/12/26 05:14:36;;;;;;;4.93;0.60;;;;;;;;;;5032709;28;20102;-70
2023/12/26 05:17:02;;;;;;;2.00;0.20;;;;;;;;;;5009245;28;20073;-70
2023/12/26 05:19:28;;;;;;;16.73;0.47;;;;;;;;;;5009092;28;20018;-70
2023/12/26 05:21:54;;;;;;;0.20;0.10;;;;;;;;;;5038663;28;20025;-70
2023/12/26 05:24:20;;;;;;;0.63;0.30;;;;;;;;;;5024128;28;20014;-71
2023/12/26 05:26:46;;;;;;;1.85;0.20;;;;;;;;;;5023720;28;20030;-70
2023/12/26 05:29:12;;;;;;;0.50;0.20;;;;;;;;;;5015822;28;20156;-69
2023/12/26 05:31:38;;;;;;;1.73;0.40;;;;;;;;;;5009042;28;20042;-69
2023/12/26 05:34:07;;;;;;;0.15;0.10;;;;;;;;;;5009215;28;20037;-70
2023/12/26 05:36:33;;;;;;;2.08;0.43;;;;;;;;;;5013900;28;20022;-71
2023/12/26 05:39:00;;;;;;;2.65;0.30;;;;;;;;;;5009216;28;20041;-72
2023/12/26 05:41:26;;;;;;;0.98;0.17;;;;;;;;;;5018773;28;20076;-71
2023/12/26 05:43:52;;;;;;;0.28;0.20;;;;;;;;;;5028114;28;20030;-72
2023/12/26 05:46:20;;;;;;;0.47;0.20;;;;;;;;;;5013049;28;20030;-74
2023/12/26 05:48:46;;;;;;;1.60;0.20;;;;;;;;;;5028325;28;20503;-75
2023/12/26 05:51:12;;;;;;;0.80;0.30;;;;;;;;;;5042769;28;20097;-72
2023/12/26 05:53:38;;;;;;;2.05;0.20;;;;;;;;;;5031410;28;20052;-73
2023/12/26 05:56:04;;;;;;;0.35;0.35;;;;;;;;;;5044349;28;20155;-74
2023/12/26 05:58:30;;;;;;;1.17;0.25;;;;;;;;;;5025015;28;20025;-74
2023/12/26 06:00:57;;;;;;;0.30;0.30;;;;;;;;;;5012475;28;20490;-72
2023/12/26 06:03:23;;;;;;;0.85;0.10;;;;;;;;;;5027312;28;20494;-73
2023/12/26 06:05:49;;;;;;;0.25;0.25;;;;;;;;;;5019136;28;20030;-72
2023/12/26 06:08:15;;;;;;;1.15;0.20;;;;;;;;;;5013690;28;20080;-72
2023/12/26 06:10:41;;;;;;;0.63;0.13;;;;;;;;;;5035534;28;20116;-71
2023/12/26 06:13:07;;;;;;;0.32;0.17;;;;;;;;;;5013212;28;20388;-71
2023/12/26 06:15:33;;;;;;;0.63;0.25;;;;;;;;;;5034659;28;20071;-71
2023/12/26 06:17:59;;;;;;;0.73;0.20;;;;;;;;;;5019841;28;20022;-70
2023/12/26 06:20:27;;;;;;;0.25;0.20;;;;;;;;;;5024855;28;20017;-71
2023/12/26 06:22:53;;;;;;;0.15;0.10;;;;;;;;;;5022397;28;20025;-70
2023/12/26 06:25:19;;;;;;;1.88;0.20;;;;;;;;;;5028045;28;20029;-70
2023/12/26 06:27:45;;;;;;;0.95;0.35;;;;;;;;;;5012769;28;20396;-71
2023/12/26 06:30:11;;;;;;;0.30;0.10;;;;;;;;;;5021139;28;20065;-71
2023/12/26 06:32:38;;;;;;;0.25;0.10;;;;;;;;;;5023136;28;20035;-70
2023/12/26 06:35:04;;;;;;;0.20;0.10;;;;;;;;;;5014053;28;20022;-70
2023/12/26 06:37:30;;;;;;;0.28;0.20;;;;;;;;;;5013171;28;20025;-70
2023/12/26 06:39:56;;;;;;;0.15;0.10;;;;;;;;;;5012843;28;20014;-70
2023/12/26 06:42:22;;;;;;;0.08;0.00;;;;;;;;;;5024125;28;20020;-69
2023/12/26 06:44:49;;;;;;;1.20;0.38;;;;;;;;;;5031334;28;20513;-69
2023/12/26 06:47:15;;;;;;;0.30;0.10;;;;;;;;;;5012899;28;20017;-69
2023/12/26 06:49:45;;;;;;;0.10;0.10;;;;;;;;;;5012623;28;20127;-70
2023/12/26 06:52:16;;;;;;;0.80;0.20;;;;;;;;;;5012617;28;20102;-74
2023/12/26 06:54:43;;;;;;;3.25;0.40;;;;;;;;;;5012786;28;20557;-70
2023/12/26 06:57:15;;;;;;;0.85;0.22;;;;;;;;;;5011203;28;20080;-71
2023/12/26 06:59:46;;;;;;;0.30;0.15;;;;;;;;;;5011247;28;20022;-72
2023/12/26 07:02:12;;;;;;;2.97;1.07;;;;;;;;;;5015478;28;20018;-72
2023/12/26 07:04:38;;;;;;;7.63;0.80;;;;;;;;;;5016918;28;20030;-70
2023/12/26 07:07:04;;;;;;;4.68;0.40;;;;;;;;;;5012372;28;20032;-70
2023/12/26 07:09:30;;;;;;;9.57;0.70;;;;;;;;;;5012135;28;20097;-71
2023/12/26 07:11:56;;;;;;;44.88;3.03;;;;;;;;;;5012074;28;20161;-66
2023/12/26 07:14:22;;;;;;;10.15;0.50;;;;;;;;;;5013378;28;20025;-66
2023/12/26 07:16:48;;;;;;;3.67;0.38;;;;;;;;;;5014838;28;20029;-66
2023/12/26 07:19:14;;;;;;;2.45;0.13;;;;;;;;;;5014781;28;20017;-66
2023/12/26 07:21:40;;;;;;;4.50;0.32;;;;;;;;;;5019532;28;20021;-72
2023/12/26 07:24:06;;;;;;;2.67;0.68;;;;;;;;;;5012015;28;20022;-72
2023/12/26 07:26:32;;;;;;;0.47;0.28;;;;;;;;;;5012422;28;20064;-73
2023/12/26 07:28:58;;;;;;;2.08;0.52;;;;;;;;;;5012255;28;20038;-71
2023/12/26 07:31:25;;;;;;;1.65;0.40;;;;;;;;;;5016823;28;20031;-73
2023/12/26 07:33:51;;;;;;;2.60;0.55;;;;;;;;;;5016656;28;20028;-73
2023/12/26 07:36:18;;;;;;;3.22;0.43;;;;;;;;;;5013956;28;20510;-74
2023/12/26 07:38:44;;;;;;;2.97;0.85;;;;;;;;;;5024032;28;20029;-75
2023/12/26 07:41:10;;;;;;;1.95;0.22;;;;;;;;;;5012070;28;20022;-73
2023/12/26 07:43:37;;;;;;;3.30;0.82;;;;;;;;;;5012170;28;20029;-71
2023/12/26 07:46:03;;;;;;;8.10;0.80;;;;;;;;;;5011804;28;20428;-73
2023/12/26 07:48:29;;;;;;;3.42;0.75;;;;;;;;;;5013083;28;20026;-72
2023/12/26 07:50:55;;;;;;;5.75;0.80;;;;;;;;;;5012571;28;20040;-72
2023/12/26 07:53:21;;;;;;;2.30;0.68;;;;;;;;;;5027262;28;20103;-71
2023/12/26 07:55:47;;;;;;;4.85;0.70;;;;;;;;;;5015631;28;20518;-71
2023/12/26 07:58:13;;;;;;;1.70;0.57;;;;;;;;;;5013869;28;20021;-73
2023/12/26 08:00:39;;;;;;;4.90;0.60;;;;;;;;;;5016977;28;20049;-72
2023/12/26 08:03:05;;;;;;;4.40;0.77;;;;;;;;;;5030271;28;20049;-73
2023/12/26 08:05:31;;;;;;;2.47;0.35;;;;;;;;;;5011608;28;20060;-71
2023/12/26 08:07:57;;;;;;;3.30;0.50;;;;;;;;;;5022555;28;20453;-72
2023/12/26 08:10:25;;;;;;;2.00;0.50;;;;;;;;;;5017449;28;20034;-71
2023/12/26 08:12:51;;;;;;;5.85;0.77;;;;;;;;;;5011208;28;20029;-71
2023/12/26 08:15:17;;;;;;;2.95;0.60;;;;;;;;;;5024191;28;20077;-71
2023/12/26 08:17:43;;;;;;;2.63;0.70;;;;;;;;;;5012519;28;20471;-70
2023/12/26 08:20:10;;;;;;;17.00;1.38;;;;;;;;;;5019505;28;20045;-68
2023/12/26 08:22:36;;;;;;;9.90;1.60;;;;;;;;;;5033936;28;20395;-71
2023/12/26 08:25:02;;;;;;;7.13;1.30;;;;;;;;;;5013156;28;20032;-70
2023/12/26 08:27:28;;;;;;;6.53;1.33;;;;;;;;;;5020054;28;20029;-70
2023/12/26 08:29:54;;;;;;;6.13;0.70;;;;;;;;;;5011431;28;20492;-70
2023/12/26 08:32:21;;;;;;;8.07;1.35;;;;;;;;;;5032123;28;20044;-73
2023/12/26 08:34:47;;;;;;;21.90;3.97;;;;;;;;;;5025437;28;20025;-72
2023/12/26 08:37:13;;;;;;;16.42;3.25;;;;;;;;;;5028168;28;20033;-74
2023/12/26 08:39:39;;;;;;;25.92;3.83;;;;;;;;;;5029697;28;20517;-72
2023/12/26 08:42:06;;;;;;;26.35;3.65;;;;;;;;;;5014666;28;20014;-73
2023/12/26 08:44:32;;;;;;;21.50;3.60;;;;;;;;;;5021684;28;20073;-73
2023/12/26 08:47:02;;;;;;;25.10;3.17;;;;;;;;;;5028161;28;20165;-73
2023/12/26 08:49:28;;;;;;;16.05;3.10;;;;;;;;;;5011368;28;20128;-73
2023/12/26 08:51:54;;;;;;;15.57;2.85;;;;;;;;;;5011511;28;20022;-73
2023/12/26 08:54:20;;;;;;;15.18;2.65;;;;;;;;;;5011229;28;20029;-73
2023/12/26 08:56:46;;;;;;;17.75;2.45;;;;;;;;;;5017557;28;20101;-73
2023/12/26 08:59:12;;;;;;;11.70;2.63;;;;;;;;;;5013634;28;20037;-73
2023/12/26 09:01:38;;;;;;;22.77;2.97;;;;;;;;;;5015665;28;20546;-73
2023/12/26 09:04:04;;;;;;;13.38;2.20;;;;;;;;;;5020253;28;20056;-72
2023/12/26 09:06:31;;;;;;;13.80;2.53;;;;;;;;;;5031691;28;20021;-72
2023/12/26 09:08:57;;;;;;;9.15;2.67;;;;;;;;;;5013718;28;20026;-73
2023/12/26 09:11:23;;;;;;;10.80;2.47;;;;;;;;;;5040552;28;20076;-73
2023/12/26 09:13:49;;;;;;;22.10;3.35;;;;;;;;;;5012083;28;20154;-73
2023/12/26 09:16:15;;;;;;;11.77;2.05;;;;;;;;;;5014184;28;20025;-73
2023/12/26 09:18:42;;;;;;;19.00;2.25;;;;;;;;;;5016484;28;20033;-73
2023/12/26 09:21:08;;;;;;;10.77;1.90;;;;;;;;;;5028550;28;20033;-73
2023/12/26 09:23:34;;;;;;;16.92;3.05;;;;;;;;;;5025099;28;20018;-73
2023/12/26 09:26:03;;;;;;;9.48;2.20;;;;;;;;;;5014932;28;20048;-73
2023/12/26 09:28:30;;;;;;;7.22;1.58;;;;;;;;;;5008972;28;20057;-73
2023/12/26 09:30:56;;;;;;;11.45;1.88;;;;;;;;;;5021948;28;20087;-73
2023/12/26 09:33:22;;;;;;;7.97;1.85;;;;;;;;;;5022165;28;20398;-73
2023/12/26 09:35:48;;;;;;;14.93;3.10;;;;;;;;;;5018696;28;20026;-73
2023/12/26 09:38:14;;;;;;;12.43;2.28;;;;;;;;;;5013369;28;20022;-73
2023/12/26 09:40:41;;;;;;;10.32;1.77;;;;;;;;;;5015837;28;20403;-72
2023/12/26 09:43:07;;;;;;;13.15;2.42;;;;;;;;;;5014787;28;20108;-74
2023/12/26 09:45:34;;;;;;;6.18;2.00;;;;;;;;;;5029708;28;20450;-70
2023/12/26 09:48:00;;;;;;;10.70;2.28;;;;;;;;;;5017115;28;20398;-71
2023/12/26 09:50:27;;;;;;;12.52;2.47;;;;;;;;;;5021662;28;20033;-72
2023/12/26 09:53:00;;;;;;;6.40;2.15;;;;;;;;;;5037870;28;20164;-72
2023/12/26 09:55:30;;;;;;;9.07;2.28;;;;;;;;;;5025780;28;20034;-73
2023/12/26 09:57:59;;;;;;;15.52;2.53;;;;;;;;;;5029852;28;20109;-71
2023/12/26 10:00:29;;;;;;;10.27;2.67;;;;;;;;;;5014692;28;20018;-72
2023/12/26 10:02:58;;;;;;;31.90;3.10;;;;;;;;;;5027435;28;20495;-72
2023/12/26 10:05:24;;;;;;;23.77;3.78;;;;;;;;;;5035933;28;20183;-73
2023/12/26 10:07:50;;;;;;;18.38;3.05;;;;;;;;;;5028526;28;20026;-72
2023/12/26 10:10:22;;;;;;;19.42;3.50;;;;;;;;;;5016227;28;20029;-72
2023/12/26 10:12:49;;;;;;;22.85;4.35;;;;;;;;;;5019147;28;20101;-68
2023/12/26 10:15:15;;;;;;;25.67;4.03;;;;;;;;;;5013339;28;20018;-69
2023/12/26 10:17:43;;;;;;;21.50;2.83;;;;;;;;;;5029113;28;20376;-68
2023/12/26 10:20:10;;;;;;;29.85;4.72;;;;;;;;;;5022233;28;20430;-67
2023/12/26 10:22:36;;;;;;;23.27;3.70;;;;;;;;;;5021334;28;20013;-67
2023/12/26 10:25:03;;;;;;;19.10;4.10;;;;;;;;;;5021460;28;20040;-68
2023/12/26 10:27:29;;;;;;;44.63;4.93;;;;;;;;;;5027376;28;20064;-68
2023/12/26 10:29:55;;;;;;;29.35;6.05;;;;;;;;;;5010611;28;20102;-68
2023/12/26 10:32:25;;;;;;;33.40;5.78;;;;;;;;;;5011363;28;20521;-67
2023/12/26 10:34:51;;;;;;;42.33;5.07;;;;;;;;;;5011246;28;20076;-68
2023/12/26 10:37:24;;;;;;;33.67;4.55;;;;;;;;;;5016780;28;20676;-68
2023/12/26 10:39:50;;;;;;;31.70;4.72;;;;;;;;;;5013136;28;20044;-68
2023/12/26 10:42:17;;;;;;;26.33;5.95;;;;;;;;;;5012637;28;20025;-68
2023/12/26 10:45:05;;;;;;;28.67;5.13;;;;;;;;;;5011381;28;20030;-68
2023/12/26 10:47:31;;;;;;;29.77;5.07;;;;;;;;;;5003677;28;20018;-68
2023/12/26 10:50:00;;;;;;;24.17;4.68;;;;;;;;;;5010822;28;20514;-67
2023/12/26 10:52:30;;;;;;;27.17;4.47;;;;;;;;;;5017571;28;20018;-68
2023/12/26 10:54:58;;;;;;;19.63;5.00;;;;;;;;;;5011002;28;20602;-68
2023/12/26 10:57:25;;;;;;;25.65;4.65;;;;;;;;;;5026318;28;20419;-68
2023/12/26 13:53:30;;;;;;;3.28;0.88;;;;;;;;;;5019828;28;20095;-66
2023/12/26 13:55:56;;;;;;;3.83;0.80;;;;;;;;;;5025396;28;20040;-67
2023/12/26 13:58:22;;;;;;;3.50;0.75;;;;;;;;;;5030705;28;20026;-67
2023/12/26 14:00:48;;;;;;;3.17;1.08;;;;;;;;;;5023548;28;20479;-68
2023/12/26 14:03:14;;;;;;;3.50;0.90;;;;;;;;;;5014651;28;20068;-67
2023/12/26 14:05:39;;;;;;;2.75;1.00;;;;;;;;;;5024364;28;20520;-66
2023/12/26 14:08:05;;;;;;;6.15;1.50;;;;;;;;;;5027904;28;20014;-69
2023/12/26 14:10:31;;;;;;;5.15;0.90;;;;;;;;;;5024796;28;20022;-68
2023/12/26 14:12:57;;;;;;;4.65;1.10;;;;;;;;;;5021352;28;20030;-69
2023/12/26 14:15:23;;;;;;;6.45;1.33;;;;;;;;;;5014629;28;20049;-69
2023/12/26 14:17:49;;;;;;;4.47;0.98;;;;;;;;;;5024526;28;20494;-68
2023/12/26 14:20:15;;;;;;;3.20;1.30;;;;;;;;;;5029708;28;20514;-69
2023/12/26 14:22:41;;;;;;;9.18;1.58;;;;;;;;;;5018693;28;20033;-68
2023/12/26 14:25:07;;;;;;;3.92;1.00;;;;;;;;;;5026740;28;20071;-69
2023/12/26 14:27:33;;;;;;;7.60;1.52;;;;;;;;;;5033022;28;20483;-69
2023/12/26 14:29:59;;;;;;;5.13;1.05;;;;;;;;;;5015834;28;20491;-69
2023/12/26 14:32:25;;;;;;;6.97;1.10;;;;;;;;;;5022220;28;20029;-70
2023/12/26 14:34:51;;;;;;;9.40;1.23;;;;;;;;;;5022589;28;20040;-69
2023/12/26 14:37:17;;;;;;;4.15;1.00;;;;;;;;;;5020325;28;20108;-68
2023/12/26 14:39:43;;;;;;;5.13;1.17;;;;;;;;;;5026111;28;20029;-68
2023/12/26 14:42:09;;;;;;;4.25;0.95;;;;;;;;;;5031812;28;20026;-68
2023/12/26 14:44:35;;;;;;;6.53;1.48;;;;;;;;;;5020874;28;20033;-69
2023/12/26 14:47:01;;;;;;;23.38;12.45;;;;;;;;;;5022926;28;20127;-68
2023/12/26 14:49:27;;;;;;;79.60;50.25;;;;;;;;;;5022825;28;20038;-72
2023/12/26 14:51:53;;;;;;;124.75;81.03;;;;;;;;;;5028981;28;20446;-67
2023/12/26 14:54:19;;;;;;;164.75;107.38;;;;;;;;;;5023919;28;20425;-68
2023/12/26 14:56:45;;;;;;;190.63;128.75;;;;;;;;;;5024488;28;20025;-68
2023/12/26 14:59:11;;;;;;;192.52;131.40;;;;;;;;;;5022328;28;20056;-69
2023/12/26 15:01:37;;;;;;;208.00;138.95;;;;;;;;;;5023775;28;20053;-69
2023/12/26 15:04:03;;;;;;;187.35;133.05;;;;;;;;;;5022537;28;20036;-68
2023/12/26 15:06:30;;;;;;;184.95;129.25;;;;;;;;;;5021549;28;20029;-70
2023/12/26 15:08:56;;;;;;;188.63;125.78;;;;;;;;;;5020411;28;20117;-73
2023/12/26 15:11:22;;;;;;;184.90;123.75;;;;;;;;;;5021114;28;20391;-71
2023/12/26 15:13:48;;;;;;;180.13;121.05;;;;;;;;;;5025043;28;20061;-70
2023/12/26 15:16:20;;;;;;;169.95;116.82;;;;;;;;;;5029686;28;20068;-72
2023/12/26 15:18:47;;;;;;;164.95;116.25;;;;;;;;;;5018034;28;20022;-70
2023/12/26 15:21:13;;;;;;;174.70;116.50;;;;;;;;;;5029953;28;20026;-69
2023/12/26 15:23:40;;;;;;;163.57;114.28;;;;;;;;;;5047182;28;20026;-69
2023/12/26 15:26:13;;;;;;;164.02;113.88;;;;;;;;;;5032502;28;20458;-69
2023/12/26 15:28:41;;;;;;;158.30;110.47;;;;;;;;;;5030862;28;20023;-69
2023/12/26 15:31:12;;;;;;;158.43;105.32;;;;;;;;;;5025384;28;20072;-67
2023/12/26 15:33:39;;;;;;;152.20;104.97;;;;;;;;;;5032167;28;20486;-68
2023/12/26 15:36:05;;;;;;;147.23;102.68;;;;;;;;;;5031951;28;20083;-70
2023/12/26 15:38:31;;;;;;;146.57;99.90;;;;;;;;;;5032042;28;20114;-68
2023/12/26 15:40:58;;;;;;;138.00;96.13;;;;;;;;;;5030559;28;20108;-69
2023/12/26 15:43:24;;;;;;;140.73;96.88;;;;;;;;;;5032103;28;20032;-68
2023/12/26 15:45:50;;;;;;;136.65;95.70;;;;;;;;;;5032389;28;20037;-71
2023/12/26 15:48:16;;;;;;;139.02;94.65;;;;;;;;;;5020538;28;20036;-70
2023/12/26 15:50:42;;;;;;;136.10;93.70;;;;;;;;;;5017880;28;20036;-70
2023/12/26 15:53:08;;;;;;;127.82;89.53;;;;;;;;;;5017777;28;20025;-70
2023/12/26 15:55:34;;;;;;;128.60;90.05;;;;;;;;;;5019869;28;20032;-69
2023/12/26 15:58:00;;;;;;;139.57;91.82;;;;;;;;;;5017550;28;20018;-71
2023/12/26 16:00:26;;;;;;;131.60;88.63;;;;;;;;;;5014692;28;20460;-70
2023/12/26 16:02:52;;;;;;;30.83;19.33;;;;;;;;;;5020131;28;20021;-70
2023/12/26 16:05:18;;;;;;;5.50;2.65;;;;;;;;;;5027368;28;20030;-69
2023/12/26 16:07:44;;;;;;;5.32;1.35;;;;;;;;;;5021021;28;20037;-70
2023/12/26 16:10:11;;;;;;;6.85;1.90;;;;;;;;;;5022252;28;20032;-69
2023/12/26 16:12:38;;;;;;;2.78;1.23;;;;;;;;;;5021714;28;20024;-69
2023/12/26 16:15:05;;;;;;;4.93;1.60;;;;;;;;;;5017894;28;20028;-69
2023/12/26 16:17:31;;;;;;;10.48;5.72;;;;;;;;;;5029211;28;20236;-71
2023/12/26 16:19:57;;;;;;;34.50;20.75;;;;;;;;;;5027054;28;20368;-67
2023/12/26 16:22:23;;;;;;;41.92;25.15;;;;;;;;;;5027066;28;20040;-69
2023/12/26 16:24:49;;;;;;;31.27;20.52;;;;;;;;;;5021866;28;20437;-69
2023/12/26 16:27:19;;;;;;;30.23;18.30;;;;;;;;;;5024729;28;20037;-66
2023/12/26 16:29:45;;;;;;;39.55;22.70;;;;;;;;;;5021057;28;20092;-69
2023/12/26 16:32:14;;;;;;;44.03;25.40;;;;;;;;;;5020970;28;20100;-69
2023/12/26 16:34:40;;;;;;;65.00;38.30;;;;;;;;;;5019792;28;20121;-69
2023/12/26 16:37:06;;;;;;;216.00;123.25;;;;;;;;;;5019366;28;20026;-71
2023/12/26 16:39:32;;;;;;;255.25;155.00;;;;;;;;;;5022393;28;20025;-71
2023/12/26 16:42:07;;;;;;;272.30;173.82;;;;;;;;;;5020049;28;20037;-69
2023/12/26 16:44:34;;;;;;;271.20;172.43;;;;;;;;;;5015700;28;20048;-69
2023/12/26 16:47:00;;;;;;;262.00;170.20;;;;;;;;;;5025231;28;20036;-69
2023/12/26 16:49:26;;;;;;;261.92;172.73;;;;;;;;;;5015809;28;20037;-69
2023/12/26 16:51:52;;;;;;;253.20;161.48;;;;;;;;;;5020308;28;20519;-68
2023/12/26 16:54:18;;;;;;;250.93;158.23;;;;;;;;;;5026803;28;20029;-67
2023/12/26 16:56:44;;;;;;;243.07;159.52;;;;;;;;;;5011271;28;20041;-67
2023/12/26 16:59:10;;;;;;;243.75;155.60;;;;;;;;;;5012828;28;20052;-68
2023/12/26 17:01:41;;;;;;;238.27;153.93;;;;;;;;;;5015984;28;20030;-68
2023/12/26 17:04:07;;;;;;;243.25;153.55;;;;;;;;;;5016577;28;20037;-68
2023/12/26 17:06:39;;;;;;;233.25;152.85;;;;;;;;;;5018211;28;20052;-67
2023/12/26 17:09:05;;;;;;;236.52;151.88;;;;;;;;;;5016368;28;20483;-68
2023/12/26 17:11:31;;;;;;;237.98;153.10;;;;;;;;;;5025438;28;20096;-68
2023/12/26 17:13:58;;;;;;;231.45;153.77;;;;;;;;;;5020081;28;20116;-70
2023/12/26 17:16:24;;;;;;;225.85;149.80;;;;;;;;;;5027787;28;20017;-68
2023/12/26 17:18:53;;;;;;;229.95;149.82;;;;;;;;;;5032719;28;20438;-68
2023/12/26 17:21:22;;;;;;;226.80;147.27;;;;;;;;;;5038234;28;20068;-67